sensor_id;sensor_type;location;lat;lon;timestamp;pressure;altitude;pressure_sealevel;temperature;humidity
79230;BME280;68663;49.122;17.544;2023-12-20T00:01:31;99195.88;;;24.64;46.24
79230;BME280;68663;49.122;17.544;2023-12-20T00:03:57;99186.16;;;24.65;46.08
79230;BME280;68663;49.122;17.544;2023-12-20T00:06:22;99186.50;;;24.67;46.31
79230;BME280;68663;49.122;17.544;2023-12-20T00:08:48;99179.19;;;24.69;46.05
79230;BME280;68663;49.122;17.544;2023-12-20T00:11:13;99189.25;;;24.70;46.02
79230;BME280;68663;49.122;17.544;2023-12-20T00:13:39;99188.47;;;24.70;46.42
79230;BME280;68663;49.122;17.544;2023-12-20T00:16:04;99187.75;;;24.66;45.92
79230;BME280;68663;49.122;17.544;2023-12-20T00:18:30;99175.72;;;24.62;46.16
79230;BME280;68663;49.122;17.544;2023-12-20T00:20:55;99185.06;;;24.59;46.24
79230;BME280;68663;49.122;17.544;2023-12-20T00:23:20;99183.50;;;24.58;46.03
79230;BME280;68663;49.122;17.544;2023-12-20T00:25:48;99183.13;;;24.56;46.36
79230;BME280;68663;49.122;17.544;2023-12-20T00:28:14;99180.81;;;24.51;46.18
79230;BME280;68663;49.122;17.544;2023-12-20T00:30:39;99176.31;;;24.53;46.17
79230;BME280;68663;49.122;17.544;2023-12-20T00:33:04;99170.59;;;24.57;45.98
79230;BME280;68663;49.122;17.544;2023-12-20T00:35:30;99162.47;;;24.59;45.91
79230;BME280;68663;49.122;17.544;2023-12-20T00:37:55;99164.06;;;24.60;45.88
79230;BME280;68663;49.122;17.544;2023-12-20T00:40:21;99154.34;;;24.61;45.91
79230;BME280;68663;49.122;17.544;2023-12-20T00:42:47;99138.97;;;24.62;45.62
79230;BME280;68663;49.122;17.544;2023-12-20T00:45:13;99134.13;;;24.62;45.75
79230;BME280;68663;49.122;17.544;2023-12-20T00:47:39;99138.09;;;24.65;45.34
79230;BME280;68663;49.122;17.544;2023-12-20T00:50:05;99138.09;;;24.65;45.43
79230;BME280;68663;49.122;17.544;2023-12-20T00:52:31;99127.59;;;24.65;45.44
79230;BME280;68663;49.122;17.544;2023-12-20T00:54:56;99115.41;;;24.68;45.52
79230;BME280;68663;49.122;17.544;2023-12-20T00:57:22;99111.06;;;24.64;45.53
79230;BME280;68663;49.122;17.544;2023-12-20T00:59:47;99111.59;;;24.59;45.50
79230;BME280;68663;49.122;17.544;2023-12-20T01:02:13;99106.81;;;24.56;45.65
79230;BME280;68663;49.122;17.544;2023-12-20T01:04:38;99104.44;;;24.54;45.59
79230;BME280;68663;49.122;17.544;2023-12-20T01:07:04;99103.63;;;24.54;45.96
79230;BME280;68663;49.122;17.544;2023-12-20T01:09:29;99106.09;;;24.52;45.58
79230;BME280;68663;49.122;17.544;2023-12-20T01:11:54;99117.50;;;24.48;45.62
79230;BME280;68663;49.122;17.544;2023-12-20T01:14:20;99113.88;;;24.48;45.66
79230;BME280;68663;49.122;17.544;2023-12-20T01:16:45;99111.75;;;24.52;45.69
79230;BME280;68663;49.122;17.544;2023-12-20T01:19:11;99106.47;;;24.54;45.72
79230;BME280;68663;49.122;17.544;2023-12-20T01:21:36;99101.16;;;24.56;45.46
79230;BME280;68663;49.122;17.544;2023-12-20T01:24:02;99098.34;;;24.56;45.24
79230;BME280;68663;49.122;17.544;2023-12-20T01:26:27;99098.25;;;24.59;45.67
79230;BME280;68663;49.122;17.544;2023-12-20T01:28:53;99092.25;;;24.57;45.44
79230;BME280;68663;49.122;17.544;2023-12-20T01:31:18;99089.16;;;24.52;45.20
79230;BME280;68663;49.122;17.544;2023-12-20T01:33:44;99094.09;;;24.48;45.35
79230;BME280;68663;49.122;17.544;2023-12-20T01:36:09;99089.31;;;24.44;45.50
79230;BME280;68663;49.122;17.544;2023-12-20T01:38:34;99080.03;;;24.44;45.30
79230;BME280;68663;49.122;17.544;2023-12-20T01:41:00;99076.41;;;24.43;45.39
79230;BME280;68663;49.122;17.544;2023-12-20T01:43:25;99071.66;;;24.40;45.40
79230;BME280;68663;49.122;17.544;2023-12-20T01:45:51;99073.22;;;24.41;45.51
79230;BME280;68663;49.122;17.544;2023-12-20T01:48:17;99064.66;;;24.45;45.25
79230;BME280;68663;49.122;17.544;2023-12-20T01:50:43;99047.19;;;24.50;45.54
79230;BME280;68663;49.122;17.544;2023-12-20T01:53:10;99053.63;;;24.51;45.25
79230;BME280;68663;49.122;17.544;2023-12-20T01:55:39;99046.84;;;24.48;45.26
79230;BME280;68663;49.122;17.544;2023-12-20T01:58:06;99047.72;;;24.45;45.57
79230;BME280;68663;49.122;17.544;2023-12-20T02:00:32;99046.56;;;24.42;45.40
79230;BME280;68663;49.122;17.544;2023-12-20T02:03:00;99043.38;;;24.40;45.33
79230;BME280;68663;49.122;17.544;2023-12-20T02:05:27;99047.44;;;24.39;45.57
79230;BME280;68663;49.122;17.544;2023-12-20T02:07:53;99046.28;;;24.37;45.69
79230;BME280;68663;49.122;17.544;2023-12-20T02:10:19;99047.53;;;24.36;45.64
79230;BME280;68663;49.122;17.544;2023-12-20T02:12:44;99061.22;;;24.37;45.42
79230;BME280;68663;49.122;17.544;2023-12-20T02:15:10;99057.50;;;24.40;45.43
79230;BME280;68663;49.122;17.544;2023-12-20T02:17:36;99053.81;;;24.43;45.24
79230;BME280;68663;49.122;17.544;2023-12-20T02:20:01;99049.75;;;24.44;45.26
79230;BME280;68663;49.122;17.544;2023-12-20T02:22:28;99049.75;;;24.44;45.04
79230;BME280;68663;49.122;17.544;2023-12-20T02:24:53;99054.69;;;24.40;45.28
79230;BME280;68663;49.122;17.544;2023-12-20T02:27:19;99044.28;;;24.37;45.35
79230;BME280;68663;49.122;17.544;2023-12-20T02:29:47;99041.09;;;24.35;45.06
79230;BME280;68663;49.122;17.544;2023-12-20T02:32:13;99035.88;;;24.34;45.29
79230;BME280;68663;49.122;17.544;2023-12-20T02:34:38;99037.91;;;24.33;45.40
79230;BME280;68663;49.122;17.544;2023-12-20T02:37:04;99031.72;;;24.38;45.17
79230;BME280;68663;49.122;17.544;2023-12-20T02:39:29;99028.91;;;24.38;45.11
79230;BME280;68663;49.122;17.544;2023-12-20T02:41:55;99033.66;;;24.41;45.16
79230;BME280;68663;49.122;17.544;2023-12-20T02:44:20;99025.56;;;24.43;45.10
79230;BME280;68663;49.122;17.544;2023-12-20T02:46:46;99025.19;;;24.41;44.94
79230;BME280;68663;49.122;17.544;2023-12-20T02:49:11;99026.06;;;24.38;44.94
79230;BME280;68663;49.122;17.544;2023-12-20T02:51:36;99025.38;;;24.34;44.92
79230;BME280;68663;49.122;17.544;2023-12-20T02:54:04;99023.44;;;24.31;45.03
79230;BME280;68663;49.122;17.544;2023-12-20T02:56:29;99016.19;;;24.30;45.23
79230;BME280;68663;49.122;17.544;2023-12-20T02:58:55;99007.25;;;24.32;45.01
79230;BME280;68663;49.122;17.544;2023-12-20T03:01:24;99001.53;;;24.35;44.80
79230;BME280;68663;49.122;17.544;2023-12-20T03:03:50;99007.53;;;24.37;45.33
79230;BME280;68663;49.122;17.544;2023-12-20T03:06:17;98997.38;;;24.40;44.71
79230;BME280;68663;49.122;17.544;2023-12-20T03:08:44;99000.56;;;24.42;44.96
79230;BME280;68663;49.122;17.544;2023-12-20T03:11:09;98990.06;;;24.42;44.60
79230;BME280;68663;49.122;17.544;2023-12-20T03:13:35;98994.03;;;24.45;44.82
79230;BME280;68663;49.122;17.544;2023-12-20T03:16:08;98989.97;;;24.46;44.71
79230;BME280;68663;49.122;17.544;2023-12-20T03:18:34;98989.53;;;24.48;44.55
79230;BME280;68663;49.122;17.544;2023-12-20T03:20:59;98977.88;;;24.45;44.85
79230;BME280;68663;49.122;17.544;2023-12-20T03:23:24;98994.13;;;24.41;44.76
79230;BME280;68663;49.122;17.544;2023-12-20T03:25:51;99009.56;;;24.37;44.53
79230;BME280;68663;49.122;17.544;2023-12-20T03:28:16;99016.91;;;24.34;44.74
79230;BME280;68663;49.122;17.544;2023-12-20T03:30:42;99022.19;;;24.32;44.81
79230;BME280;68663;49.122;17.544;2023-12-20T03:33:07;99013.78;;;24.29;45.01
79230;BME280;68663;49.122;17.544;2023-12-20T03:35:33;99010.59;;;24.27;44.75
79230;BME280;68663;49.122;17.544;2023-12-20T03:37:58;99004.53;;;24.28;45.01
79230;BME280;68663;49.122;17.544;2023-12-20T03:40:25;99010.88;;;24.32;44.75
79230;BME280;68663;49.122;17.544;2023-12-20T03:42:51;99009.56;;;24.37;44.56
79230;BME280;68663;49.122;17.544;2023-12-20T03:45:16;99004.25;;;24.39;44.53
79230;BME280;68663;49.122;17.544;2023-12-20T03:47:42;98988.56;;;24.38;44.53
79230;BME280;68663;49.122;17.544;2023-12-20T03:50:07;98985.63;;;24.41;44.86
79230;BME280;68663;49.122;17.544;2023-12-20T03:52:33;98984.41;;;24.42;44.54
79230;BME280;68663;49.122;17.544;2023-12-20T03:54:58;98974.78;;;24.40;44.72
79230;BME280;68663;49.122;17.544;2023-12-20T03:57:23;98986.16;;;24.36;44.65
79230;BME280;68663;49.122;17.544;2023-12-20T03:59:49;98991.47;;;24.34;44.67
79230;BME280;68663;49.122;17.544;2023-12-20T04:02:14;98986.25;;;24.33;44.53
79230;BME280;68663;49.122;17.544;2023-12-20T04:04:40;98973.38;;;24.32;44.66
79230;BME280;68663;49.122;17.544;2023-12-20T04:07:06;98964.09;;;24.31;44.73
79230;BME280;68663;49.122;17.544;2023-12-20T04:09:31;98960.03;;;24.32;44.71
79230;BME280;68663;49.122;17.544;2023-12-20T04:11:56;98960.28;;;24.38;44.73
79230;BME280;68663;49.122;17.544;2023-12-20T04:14:22;98951.38;;;24.39;44.28
79230;BME280;68663;49.122;17.544;2023-12-20T04:16:48;98946.59;;;24.36;44.34
79230;BME280;68663;49.122;17.544;2023-12-20T04:19:13;98976.97;;;24.32;44.38
79230;BME280;68663;49.122;17.544;2023-12-20T04:21:39;99010.53;;;24.30;44.78
79230;BME280;68663;49.122;17.544;2023-12-20T04:24:04;98999.22;;;24.30;44.53
79230;BME280;68663;49.122;17.544;2023-12-20T04:26:30;98993.63;;;24.27;44.83
79230;BME280;68663;49.122;17.544;2023-12-20T04:28:55;98967.81;;;24.25;44.59
79230;BME280;68663;49.122;17.544;2023-12-20T04:31:21;98968.63;;;24.25;44.67
79230;BME280;68663;49.122;17.544;2023-12-20T04:33:46;98989.53;;;24.31;44.60
79230;BME280;68663;49.122;17.544;2023-12-20T04:36:11;98984.56;;;24.35;44.39
79230;BME280;68663;49.122;17.544;2023-12-20T04:38:37;99005.59;;;24.34;44.69
79230;BME280;68663;49.122;17.544;2023-12-20T04:41:03;99004.00;;;24.33;44.33
79230;BME280;68663;49.122;17.544;2023-12-20T04:43:29;98996.75;;;24.32;44.34
79230;BME280;68663;49.122;17.544;2023-12-20T04:45:55;99001.25;;;24.30;44.79
79230;BME280;68663;49.122;17.544;2023-12-20T04:48:20;99014.59;;;24.29;44.99
79230;BME280;68663;49.122;17.544;2023-12-20T04:50:46;99012.91;;;24.32;44.93
79230;BME280;68663;49.122;17.544;2023-12-20T04:53:11;98999.84;;;24.38;44.87
79230;BME280;68663;49.122;17.544;2023-12-20T04:55:36;98997.47;;;24.36;45.12
79230;BME280;68663;49.122;17.544;2023-12-20T04:58:02;99007.97;;;24.36;44.89
79230;BME280;68663;49.122;17.544;2023-12-20T05:00:27;98998.34;;;24.33;44.83
79230;BME280;68663;49.122;17.544;2023-12-20T05:02:53;98992.78;;;24.30;45.11
79230;BME280;68663;49.122;17.544;2023-12-20T05:05:18;98981.50;;;24.26;45.54
79230;BME280;68663;49.122;17.544;2023-12-20T05:07:43;98982.28;;;24.30;45.49
79230;BME280;68663;49.122;17.544;2023-12-20T05:10:09;98974.06;;;24.36;45.53
79230;BME280;68663;49.122;17.544;2023-12-20T05:12:35;98982.09;;;24.37;45.60
79230;BME280;68663;49.122;17.544;2023-12-20T05:15:00;98970.44;;;24.35;45.73
79230;BME280;68663;49.122;17.544;2023-12-20T05:17:26;98951.13;;;24.34;45.66
79230;BME280;68663;49.122;17.544;2023-12-20T05:19:51;98951.56;;;24.32;45.75
79230;BME280;68663;49.122;17.544;2023-12-20T05:22:17;98955.63;;;24.31;45.66
79230;BME280;68663;49.122;17.544;2023-12-20T05:24:43;98962.06;;;24.32;45.46
79230;BME280;68663;49.122;17.544;2023-12-20T05:27:09;98956.41;;;24.32;45.62
79230;BME280;68663;49.122;17.544;2023-12-20T05:29:34;98951.56;;;24.32;45.99
79230;BME280;68663;49.122;17.544;2023-12-20T05:32:00;98931.25;;;24.37;45.31
79230;BME280;68663;49.122;17.544;2023-12-20T05:34:25;98929.47;;;24.43;45.72
79230;BME280;68663;49.122;17.544;2023-12-20T05:36:50;98933.44;;;24.46;45.66
79230;BME280;68663;49.122;17.544;2023-12-20T05:39:16;98935.03;;;24.47;45.68
79230;BME280;68663;49.122;17.544;2023-12-20T05:41:42;98947.13;;;24.48;45.43
79230;BME280;68663;49.122;17.544;2023-12-20T05:44:07;98961.69;;;24.46;45.80
79230;BME280;68663;49.122;17.544;2023-12-20T05:46:33;98965.84;;;24.41;45.92
79230;BME280;68663;49.122;17.544;2023-12-20T05:48:58;98986.53;;;24.38;45.67
79230;BME280;68663;49.122;17.544;2023-12-20T05:51:23;98977.34;;;24.34;45.69
79230;BME280;68663;49.122;17.544;2023-12-20T05:53:49;98970.44;;;24.35;45.62
79230;BME280;68663;49.122;17.544;2023-12-20T05:56:15;98968.84;;;24.34;45.62
79230;BME280;68663;49.122;17.544;2023-12-20T05:58:40;98959.69;;;24.30;45.66
79230;BME280;68663;49.122;17.544;2023-12-20T06:01:06;98965.31;;;24.30;45.55
79230;BME280;68663;49.122;17.544;2023-12-20T06:03:33;98971.69;;;24.34;45.58
79230;BME280;68663;49.122;17.544;2023-12-20T06:05:59;98979.63;;;24.39;45.38
79230;BME280;68663;49.122;17.544;2023-12-20T06:08:25;98978.75;;;24.42;45.41
79230;BME280;68663;49.122;17.544;2023-12-20T06:10:51;98982.81;;;24.41;45.46
79230;BME280;68663;49.122;17.544;2023-12-20T06:13:16;98969.22;;;24.36;45.59
79230;BME280;68663;49.122;17.544;2023-12-20T06:15:42;98984.56;;;24.35;45.54
79230;BME280;68663;49.122;17.544;2023-12-20T06:18:07;98981.03;;;24.31;45.48
79230;BME280;68663;49.122;17.544;2023-12-20T06:20:33;98983.06;;;24.31;45.38
79230;BME280;68663;49.122;17.544;2023-12-20T06:22:58;98987.13;;;24.30;45.28
79230;BME280;68663;49.122;17.544;2023-12-20T06:25:24;98969.00;;;24.27;45.71
79230;BME280;68663;49.122;17.544;2023-12-20T06:27:49;98978.31;;;24.28;45.51
79230;BME280;68663;49.122;17.544;2023-12-20T06:30:15;98989.53;;;24.31;45.71
79230;BME280;68663;49.122;17.544;2023-12-20T06:32:41;98986.16;;;24.36;45.30
79230;BME280;68663;49.122;17.544;2023-12-20T06:35:08;98992.59;;;24.37;45.50
79230;BME280;68663;49.122;17.544;2023-12-20T06:37:33;98989.88;;;24.33;45.41
79230;BME280;68663;49.122;17.544;2023-12-20T06:39:59;98983.97;;;24.28;45.45
79230;BME280;68663;49.122;17.544;2023-12-20T06:42:24;98987.16;;;24.26;45.21
79230;BME280;68663;49.122;17.544;2023-12-20T06:44:50;98991.22;;;24.25;45.20
79230;BME280;68663;49.122;17.544;2023-12-20T06:47:15;98994.03;;;24.25;45.37
79230;BME280;68663;49.122;17.544;2023-12-20T06:49:41;98997.31;;;24.24;45.52
79230;BME280;68663;49.122;17.544;2023-12-20T06:52:06;98996.88;;;24.25;45.22
79230;BME280;68663;49.122;17.544;2023-12-20T06:54:31;98993.59;;;24.30;45.17
79230;BME280;68663;49.122;17.544;2023-12-20T06:56:59;98998.34;;;24.33;45.14
79230;BME280;68663;49.122;17.544;2023-12-20T06:59:24;99004.34;;;24.35;45.29
79230;BME280;68663;49.122;17.544;2023-12-20T07:01:51;99001.53;;;24.35;45.08
79230;BME280;68663;49.122;17.544;2023-12-20T07:04:16;99014.78;;;24.38;45.09
79230;BME280;68663;49.122;17.544;2023-12-20T07:06:45;99020.78;;;24.40;45.10
79230;BME280;68663;49.122;17.544;2023-12-20T07:09:11;99014.69;;;24.42;44.98
79230;BME280;68663;49.122;17.544;2023-12-20T07:11:38;99018.75;;;24.41;45.12
79230;BME280;68663;49.122;17.544;2023-12-20T07:14:03;99022.91;;;24.36;44.84
79230;BME280;68663;49.122;17.544;2023-12-20T07:16:29;99018.13;;;24.33;45.28
79230;BME280;68663;49.122;17.544;2023-12-20T07:18:55;99019.00;;;24.30;45.03
79230;BME280;68663;49.122;17.544;2023-12-20T07:21:21;99028.72;;;24.29;45.04
79230;BME280;68663;49.122;17.544;2023-12-20T07:23:46;99033.97;;;24.27;45.15
79230;BME280;68663;49.122;17.544;2023-12-20T07:26:12;99027.94;;;24.25;45.31
79230;BME280;68663;49.122;17.544;2023-12-20T07:28:37;99032.78;;;24.28;44.99
79230;BME280;68663;49.122;17.544;2023-12-20T07:31:03;99036.31;;;24.32;45.00
79230;BME280;68663;49.122;17.544;2023-12-20T07:33:28;99035.44;;;24.35;44.67
79230;BME280;68663;49.122;17.544;2023-12-20T07:35:54;99037.81;;;24.37;44.74
79230;BME280;68663;49.122;17.544;2023-12-20T07:38:19;99034.56;;;24.38;44.70
79230;BME280;68663;49.122;17.544;2023-12-20T07:40:45;99035.00;;;24.37;44.70
79230;BME280;68663;49.122;17.544;2023-12-20T07:43:10;99027.84;;;24.32;44.94
79230;BME280;68663;49.122;17.544;2023-12-20T07:45:35;99027.47;;;24.30;44.56
79230;BME280;68663;49.122;17.544;2023-12-20T07:48:01;99025.13;;;24.25;44.90
79230;BME280;68663;49.122;17.544;2023-12-20T07:50:26;99015.84;;;24.25;44.59
79230;BME280;68663;49.122;17.544;2023-12-20T07:52:52;99015.50;;;24.23;45.13
79230;BME280;68663;49.122;17.544;2023-12-20T07:55:18;99020.53;;;24.15;45.34
79230;BME280;68663;49.122;17.544;2023-12-20T07:57:43;99027.81;;;23.96;38.05
79230;BME280;68663;49.122;17.544;2023-12-20T08:00:09;99022.13;;;23.60;32.47
79230;BME280;68663;49.122;17.544;2023-12-20T08:02:35;99032.88;;;23.45;31.71
79230;BME280;68663;49.122;17.544;2023-12-20T08:05:00;99037.47;;;23.59;34.90
79230;BME280;68663;49.122;17.544;2023-12-20T08:07:26;99038.56;;;23.65;34.21
79230;BME280;68663;49.122;17.544;2023-12-20T08:09:51;99051.38;;;23.70;34.68
79230;BME280;68663;49.122;17.544;2023-12-20T08:12:18;99047.75;;;23.69;34.87
79230;BME280;68663;49.122;17.544;2023-12-20T08:14:43;99040.44;;;23.72;35.65
79230;BME280;68663;49.122;17.544;2023-12-20T08:17:09;99044.41;;;23.74;35.99
79230;BME280;68663;49.122;17.544;2023-12-20T08:19:34;99039.06;;;23.80;36.43
79230;BME280;68663;49.122;17.544;2023-12-20T08:21:59;99042.53;;;23.88;37.12
79230;BME280;68663;49.122;17.544;2023-12-20T08:24:25;99039.19;;;23.93;37.04
79230;BME280;68663;49.122;17.544;2023-12-20T08:26:50;99048.38;;;23.97;37.33
79230;BME280;68663;49.122;17.544;2023-12-20T08:29:16;99046.69;;;23.99;37.48
79230;BME280;68663;49.122;17.544;2023-12-20T08:31:41;99048.28;;;24.00;37.43
79230;BME280;68663;49.122;17.544;2023-12-20T08:34:06;99039.38;;;24.02;37.73
79230;BME280;68663;49.122;17.544;2023-12-20T08:36:32;99043.78;;;24.03;38.15
79230;BME280;68663;49.122;17.544;2023-12-20T08:38:57;99051.38;;;24.06;38.49
79230;BME280;68663;49.122;17.544;2023-12-20T08:41:23;99052.97;;;24.07;38.48
79230;BME280;68663;49.122;17.544;2023-12-20T08:43:48;99048.94;;;24.08;38.49
79230;BME280;68663;49.122;17.544;2023-12-20T08:46:14;99042.84;;;24.09;38.51
79230;BME280;68663;49.122;17.544;2023-12-20T08:48:40;99041.16;;;24.12;38.87
79230;BME280;68663;49.122;17.544;2023-12-20T08:51:05;99052.47;;;24.12;39.03
79230;BME280;68663;49.122;17.544;2023-12-20T08:53:34;99046.81;;;24.12;39.63
79230;BME280;68663;49.122;17.544;2023-12-20T08:55:59;99060.06;;;24.15;40.07
79230;BME280;68663;49.122;17.544;2023-12-20T08:58:27;99053.19;;;24.16;40.34
79230;BME280;68663;49.122;17.544;2023-12-20T09:00:53;99055.56;;;24.18;40.61
79230;BME280;68663;49.122;17.544;2023-12-20T09:03:18;99056.38;;;24.18;40.85
79230;BME280;68663;49.122;17.544;2023-12-20T09:05:44;99062.81;;;24.19;41.34
79230;BME280;68663;49.122;17.544;2023-12-20T09:08:09;99059.09;;;24.22;41.31
79230;BME280;68663;49.122;17.544;2023-12-20T09:10:36;99057.88;;;24.23;41.66
79230;BME280;68663;49.122;17.544;2023-12-20T09:13:02;99064.66;;;24.25;41.73
79230;BME280;68663;49.122;17.544;2023-12-20T09:15:28;99066.25;;;24.26;41.95
79230;BME280;68663;49.122;17.544;2023-12-20T09:17:55;99068.72;;;24.28;41.89
79230;BME280;68663;49.122;17.544;2023-12-20T09:20:20;99059.78;;;24.29;41.89
79230;BME280;68663;49.122;17.544;2023-12-20T09:22:46;99059.78;;;24.29;42.12
79230;BME280;68663;49.122;17.544;2023-12-20T09:25:12;99061.38;;;24.30;41.58
79230;BME280;68663;49.122;17.544;2023-12-20T09:27:39;99060.59;;;24.30;41.70
79230;BME280;68663;49.122;17.544;2023-12-20T09:30:05;99061.38;;;24.30;41.57
79230;BME280;68663;49.122;17.544;2023-12-20T09:32:31;99056.53;;;24.31;41.58
79230;BME280;68663;49.122;17.544;2023-12-20T09:34:57;99056.53;;;24.31;41.55
79230;BME280;68663;49.122;17.544;2023-12-20T09:37:25;99056.53;;;24.31;41.84
79230;BME280;68663;49.122;17.544;2023-12-20T09:39:51;99051.69;;;24.31;42.21
79230;BME280;68663;49.122;17.544;2023-12-20T09:42:22;99050.09;;;24.30;42.32
79230;BME280;68663;49.122;17.544;2023-12-20T09:44:49;99050.88;;;24.31;42.11
79230;BME280;68663;49.122;17.544;2023-12-20T09:47:15;99045.22;;;24.31;42.19
79230;BME280;68663;49.122;17.544;2023-12-20T09:49:44;99044.78;;;24.32;42.20
79230;BME280;68663;49.122;17.544;2023-12-20T09:52:11;99041.97;;;24.32;42.16
79230;BME280;68663;49.122;17.544;2023-12-20T09:54:38;99035.06;;;24.33;42.06
79230;BME280;68663;49.122;17.544;2023-12-20T09:57:04;99037.13;;;24.33;41.88
79230;BME280;68663;49.122;17.544;2023-12-20T09:59:29;99037.13;;;24.33;42.10
79230;BME280;68663;49.122;17.544;2023-12-20T10:01:55;99036.66;;;24.34;42.36
79230;BME280;68663;49.122;17.544;2023-12-20T10:04:22;99035.88;;;24.34;42.12
79230;BME280;68663;49.122;17.544;2023-12-20T10:06:47;99045.16;;;24.34;42.13
79230;BME280;68663;49.122;17.544;2023-12-20T10:09:13;99041.09;;;24.35;42.24
79230;BME280;68663;49.122;17.544;2023-12-20T10:11:40;99041.88;;;24.36;42.17
79230;BME280;68663;49.122;17.544;2023-12-20T10:14:06;99029.00;;;24.35;42.15
79230;BME280;68663;49.122;17.544;2023-12-20T10:16:32;99029.78;;;24.35;42.30
79230;BME280;68663;49.122;17.544;2023-12-20T10:18:59;99031.03;;;24.34;42.21
79230;BME280;68663;49.122;17.544;2023-12-20T10:21:26;99029.00;;;24.35;42.17
79230;BME280;68663;49.122;17.544;2023-12-20T10:23:56;99027.41;;;24.34;42.18
79230;BME280;68663;49.122;17.544;2023-12-20T10:26:23;99032.25;;;24.33;42.00
79230;BME280;68663;49.122;17.544;2023-12-20T10:29:01;99023.78;;;24.33;42.29
79230;BME280;68663;49.122;17.544;2023-12-20T10:31:33;99025.81;;;24.33;42.43
79230;BME280;68663;49.122;17.544;2023-12-20T10:34:01;99018.13;;;24.33;42.34
79230;BME280;68663;49.122;17.544;2023-12-20T10:36:32;99014.06;;;24.34;42.17
79230;BME280;68663;49.122;17.544;2023-12-20T10:38:58;99014.06;;;24.34;42.40
79230;BME280;68663;49.122;17.544;2023-12-20T10:41:32;99016.91;;;24.34;42.36
79230;BME280;68663;49.122;17.544;2023-12-20T10:43:59;99018.47;;;24.35;42.42
79230;BME280;68663;49.122;17.544;2023-12-20T10:46:26;99017.25;;;24.36;42.17
79230;BME280;68663;49.122;17.544;2023-12-20T10:48:54;99020.06;;;24.36;42.01
79230;BME280;68663;49.122;17.544;2023-12-20T10:51:20;99014.88;;;24.35;42.06
79230;BME280;68663;49.122;17.544;2023-12-20T10:53:49;99005.94;;;24.36;42.34
79230;BME280;68663;49.122;17.544;2023-12-20T10:56:18;99014.41;;;24.36;42.12
79230;BME280;68663;49.122;17.544;2023-12-20T10:58:45;99013.19;;;24.37;42.20
79230;BME280;68663;49.122;17.544;2023-12-20T11:01:13;99008.78;;;24.36;42.26
79230;BME280;68663;49.122;17.544;2023-12-20T11:03:43;99006.75;;;24.37;42.37
79230;BME280;68663;49.122;17.544;2023-12-20T11:06:29;99000.28;;;24.36;41.99
79230;BME280;68663;49.122;17.544;2023-12-20T11:17:10;98992.53;;;24.40;42.06
79230;BME280;68663;49.122;17.544;2023-12-20T11:22:21;98987.75;;;24.37;42.39
79230;BME280;68663;49.122;17.544;2023-12-20T11:24:48;98991.13;;;24.32;42.26
79230;BME280;68663;49.122;17.544;2023-12-20T11:27:14;98981.47;;;24.30;42.31
79230;BME280;68663;49.122;17.544;2023-12-20T11:29:40;98968.22;;;24.27;42.32
79230;BME280;68663;49.122;17.544;2023-12-20T11:32:29;98965.44;;;24.23;42.46
79230;BME280;68663;49.122;17.544;2023-12-20T11:37:21;98951.41;;;24.20;42.41
79230;BME280;68663;49.122;17.544;2023-12-20T11:40:00;98960.59;;;24.24;42.29
79230;BME280;68663;49.122;17.544;2023-12-20T11:42:27;98962.16;;;24.28;42.59
79230;BME280;68663;49.122;17.544;2023-12-20T11:44:53;98954.03;;;24.30;42.58
79230;BME280;68663;49.122;17.544;2023-12-20T11:47:19;98964.56;;;24.26;42.27
79230;BME280;68663;49.122;17.544;2023-12-20T11:49:47;98966.59;;;24.26;42.16
79230;BME280;68663;49.122;17.544;2023-12-20T11:52:13;98968.28;;;24.23;42.39
79230;BME280;68663;49.122;17.544;2023-12-20T11:54:39;98965.53;;;24.20;42.65
79230;BME280;68663;49.122;17.544;2023-12-20T11:57:04;98951.84;;;24.18;42.68
79230;BME280;68663;49.122;17.544;2023-12-20T11:59:30;98957.41;;;24.22;42.41
79230;BME280;68663;49.122;17.544;2023-12-20T12:01:56;98965.78;;;24.25;42.56
79230;BME280;68663;49.122;17.544;2023-12-20T12:04:26;98966.19;;;24.27;42.56
79230;BME280;68663;49.122;17.544;2023-12-20T12:06:51;98979.09;;;24.28;42.57
79230;BME280;68663;49.122;17.544;2023-12-20T12:09:17;98976.63;;;24.30;42.62
79230;BME280;68663;49.122;17.544;2023-12-20T12:11:43;98979.81;;;24.32;42.36
79230;BME280;68663;49.122;17.544;2023-12-20T12:14:08;98974.50;;;24.34;42.38
79230;BME280;68663;49.122;17.544;2023-12-20T12:16:34;98966.13;;;24.31;42.25
79230;BME280;68663;49.122;17.544;2023-12-20T12:19:00;98969.00;;;24.27;42.36
79230;BME280;68663;49.122;17.544;2023-12-20T12:21:25;98959.00;;;24.23;42.41
79230;BME280;68663;49.122;17.544;2023-12-20T12:23:51;98951.41;;;24.20;42.52
79230;BME280;68663;49.122;17.544;2023-12-20T12:26:16;98944.16;;;24.19;42.68
79230;BME280;68663;49.122;17.544;2023-12-20T12:28:42;98943.81;;;24.17;42.59
79230;BME280;68663;49.122;17.544;2023-12-20T12:31:08;98935.00;;;24.14;42.38
79230;BME280;68663;49.122;17.544;2023-12-20T12:33:34;98927.75;;;24.13;42.45
79230;BME280;68663;49.122;17.544;2023-12-20T12:36:03;98919.53;;;24.19;42.57
79230;BME280;68663;49.122;17.544;2023-12-20T12:38:30;98925.00;;;24.26;42.17
79230;BME280;68663;49.122;17.544;2023-12-20T12:40:56;98927.84;;;24.26;42.28
79230;BME280;68663;49.122;17.544;2023-12-20T12:43:22;98924.31;;;24.22;42.73
79230;BME280;68663;49.122;17.544;2023-12-20T12:45:48;98937.72;;;24.18;42.32
79230;BME280;68663;49.122;17.544;2023-12-20T12:48:14;98939.84;;;24.14;42.54
79230;BME280;68663;49.122;17.544;2023-12-20T12:50:40;98941.06;;;24.13;42.50
79230;BME280;68663;49.122;17.544;2023-12-20T12:53:05;98942.66;;;24.14;42.77
79230;BME280;68663;49.122;17.544;2023-12-20T12:55:31;98946.38;;;24.11;42.80
79230;BME280;68663;49.122;17.544;2023-12-20T12:57:56;98936.66;;;24.12;42.90